Main page
METAR-TAF:

METAR-TAF

Airports :

Djibouti, Djibouti

Djibouti–Ambouli International Airport

latitude: 11-33N, longitude: 043-10E, elevation: 49 m

Current weather observation

The report was made 2 hours and 21 minutes ago, at 05:00 UTC
Wind 3 kt from the East/Southeast
Temperature 32°C
Humidity 67%
Pressure 1012 hPa
Visibility 10 km or more
Scattered clouds at a height of 2000 ft

METAR: HDAM 230500Z 12003KT 9999 SCT020 32/25 Q1012

Time: 10:21 (07:21 UTC)

Forecast

The report was made 2 hours and 21 minutes ago, at 05:00 UTC
Forecast valid from 23 at 06 UTC to 24 at 06 UTC
Wind 10 kt from the East
Visibility 10 km or more
Scattered clouds at a height of 2300 ft
Becoming
from 23 at 15 UTC to 24 at 06 UTC
Wind 3 kt from variable directions
Scattered clouds at a height of 2000 ft
Scattered clouds at a height of 3000 ft

TAF: HDAM 230500Z 2306/2406 10010KT 9999 SCT023 BECMG 2315/2406 VRB03KT SCT020 SCT030

Weather observations and forecasts of more than 4000 airports (METAR and TAF reports).

The available stations are represented by yellow and red dots on the map.

Hover mouse over dot to see the name of the station.

Then click to see weather observations and forecasts.

To change the map : click on the green buttons with a black cross to zoom in, on the green button with a dash to zoom out, or on the green arrows for adjacent maps.


METAR-TAF: